sensor_id;sensor_type;location;lat;lon;timestamp;temperature;humidity
10155;DHT22;5118;48.570;7.916;2022-12-29T00:01:10;12.50;99.90
10155;DHT22;5118;48.570;7.916;2022-12-29T00:03:40;12.50;99.90
10155;DHT22;5118;48.570;7.916;2022-12-29T00:06:08;12.50;99.90
10155;DHT22;5118;48.570;7.916;2022-12-29T00:08:37;12.60;99.90
10155;DHT22;5118;48.570;7.916;2022-12-29T00:11:08;12.60;99.90
10155;DHT22;5118;48.570;7.916;2022-12-29T00:13:37;12.60;99.90
10155;DHT22;5118;48.570;7.916;2022-12-29T00:16:23;12.60;99.90
10155;DHT22;5118;48.570;7.916;2022-12-29T00:18:53;12.50;99.90
10155;DHT22;5118;48.570;7.916;2022-12-29T00:21:23;12.40;99.90
10155;DHT22;5118;48.570;7.916;2022-12-29T00:24:12;12.40;99.90
10155;DHT22;5118;48.570;7.916;2022-12-29T00:27:09;12.30;99.90
10155;DHT22;5118;48.570;7.916;2022-12-29T00:29:56;12.20;99.90
10155;DHT22;5118;48.570;7.916;2022-12-29T00:32:43;12.20;99.90
10155;DHT22;5118;48.570;7.916;2022-12-29T00:35:39;12.10;99.90
10155;DHT22;5118;48.570;7.916;2022-12-29T00:38:12;12.10;99.90
10155;DHT22;5118;48.570;7.916;2022-12-29T00:40:58;12.10;99.90
10155;DHT22;5118;48.570;7.916;2022-12-29T00:43:43;12.10;99.90
10155;DHT22;5118;48.570;7.916;2022-12-29T00:46:31;12.10;99.90
10155;DHT22;5118;48.570;7.916;2022-12-29T00:49:00;12.20;99.90
10155;DHT22;5118;48.570;7.916;2022-12-29T00:51:47;12.20;99.90
10155;DHT22;5118;48.570;7.916;2022-12-29T00:54:16;12.30;99.90
10155;DHT22;5118;48.570;7.916;2022-12-29T00:56:46;12.30;99.90
10155;DHT22;5118;48.570;7.916;2022-12-29T00:59:17;12.30;99.90
10155;DHT22;5118;48.570;7.916;2022-12-29T01:01:46;12.30;99.90
10155;DHT22;5118;48.570;7.916;2022-12-29T01:04:14;12.40;99.90
10155;DHT22;5118;48.570;7.916;2022-12-29T01:06:44;12.40;99.90
10155;DHT22;5118;48.570;7.916;2022-12-29T01:09:16;12.40;99.90
10155;DHT22;5118;48.570;7.916;2022-12-29T01:12:09;12.40;99.90
10155;DHT22;5118;48.570;7.916;2022-12-29T01:14:38;12.40;99.90
10155;DHT22;5118;48.570;7.916;2022-12-29T01:17:06;12.40;99.90
10155;DHT22;5118;48.570;7.916;2022-12-29T01:19:34;12.40;99.90
10155;DHT22;5118;48.570;7.916;2022-12-29T01:22:02;12.40;99.90
10155;DHT22;5118;48.570;7.916;2022-12-29T01:24:32;12.40;99.90
10155;DHT22;5118;48.570;7.916;2022-12-29T01:27:00;12.40;99.90
10155;DHT22;5118;48.570;7.916;2022-12-29T01:29:29;12.40;99.90
10155;DHT22;5118;48.570;7.916;2022-12-29T01:31:58;12.50;99.90
10155;DHT22;5118;48.570;7.916;2022-12-29T01:34:26;12.40;99.90
10155;DHT22;5118;48.570;7.916;2022-12-29T01:36:54;12.50;99.90
10155;DHT22;5118;48.570;7.916;2022-12-29T01:39:24;12.40;99.90
10155;DHT22;5118;48.570;7.916;2022-12-29T01:41:53;12.40;99.90
10155;DHT22;5118;48.570;7.916;2022-12-29T01:44:47;12.40;99.90
10155;DHT22;5118;48.570;7.916;2022-12-29T01:47:21;12.40;99.90
10155;DHT22;5118;48.570;7.916;2022-12-29T01:49:53;12.40;99.90
10155;DHT22;5118;48.570;7.916;2022-12-29T01:52:23;12.40;99.90
10155;DHT22;5118;48.570;7.916;2022-12-29T01:54:53;12.50;99.90
10155;DHT22;5118;48.570;7.916;2022-12-29T01:57:27;12.40;99.90
10155;DHT22;5118;48.570;7.916;2022-12-29T02:00:00;12.40;99.90
10155;DHT22;5118;48.570;7.916;2022-12-29T02:02:38;12.40;99.90
10155;DHT22;5118;48.570;7.916;2022-12-29T02:05:12;12.40;99.90
10155;DHT22;5118;48.570;7.916;2022-12-29T02:07:45;12.40;99.90
10155;DHT22;5118;48.570;7.916;2022-12-29T02:10:15;12.40;99.90
10155;DHT22;5118;48.570;7.916;2022-12-29T02:12:45;12.40;99.90
10155;DHT22;5118;48.570;7.916;2022-12-29T02:15:15;12.40;99.90
10155;DHT22;5118;48.570;7.916;2022-12-29T02:18:03;12.40;99.90
10155;DHT22;5118;48.570;7.916;2022-12-29T02:21:07;12.40;99.90
10155;DHT22;5118;48.570;7.916;2022-12-29T02:24:24;12.40;99.90
10155;DHT22;5118;48.570;7.916;2022-12-29T02:27:15;12.40;99.90
10155;DHT22;5118;48.570;7.916;2022-12-29T02:30:06;12.40;99.90
10155;DHT22;5118;48.570;7.916;2022-12-29T02:32:45;12.40;99.90
10155;DHT22;5118;48.570;7.916;2022-12-29T02:35:23;12.40;99.90
10155;DHT22;5118;48.570;7.916;2022-12-29T02:38:00;12.40;99.90
10155;DHT22;5118;48.570;7.916;2022-12-29T02:40:39;12.40;99.90
10155;DHT22;5118;48.570;7.916;2022-12-29T02:43:16;12.40;99.90
10155;DHT22;5118;48.570;7.916;2022-12-29T02:45:52;12.40;99.90
10155;DHT22;5118;48.570;7.916;2022-12-29T02:48:25;12.30;99.90
10155;DHT22;5118;48.570;7.916;2022-12-29T02:51:00;12.40;99.90
10155;DHT22;5118;48.570;7.916;2022-12-29T02:53:31;12.30;99.90
10155;DHT22;5118;48.570;7.916;2022-12-29T02:56:18;12.20;99.90
10155;DHT22;5118;48.570;7.916;2022-12-29T02:58:47;12.20;99.90
10155;DHT22;5118;48.570;7.916;2022-12-29T03:01:36;12.10;99.90
10155;DHT22;5118;48.570;7.916;2022-12-29T03:04:36;12.20;99.90
10155;DHT22;5118;48.570;7.916;2022-12-29T03:07:12;12.20;99.90
10155;DHT22;5118;48.570;7.916;2022-12-29T03:09:54;12.20;99.90
10155;DHT22;5118;48.570;7.916;2022-12-29T03:12:30;12.30;99.90
10155;DHT22;5118;48.570;7.916;2022-12-29T03:15:24;12.30;99.90
10155;DHT22;5118;48.570;7.916;2022-12-29T03:18:15;12.30;99.90
10155;DHT22;5118;48.570;7.916;2022-12-29T03:20:54;12.20;99.90
10155;DHT22;5118;48.570;7.916;2022-12-29T03:23:24;12.20;99.90
10155;DHT22;5118;48.570;7.916;2022-12-29T03:25:57;12.20;99.90
10155;DHT22;5118;48.570;7.916;2022-12-29T03:28:30;12.10;99.90
10155;DHT22;5118;48.570;7.916;2022-12-29T03:31:03;12.10;99.90
10155;DHT22;5118;48.570;7.916;2022-12-29T03:33:34;12.00;99.90
10155;DHT22;5118;48.570;7.916;2022-12-29T03:36:11;11.90;99.90
10155;DHT22;5118;48.570;7.916;2022-12-29T03:38:45;11.80;99.90
10155;DHT22;5118;48.570;7.916;2022-12-29T03:41:17;11.70;99.90
10155;DHT22;5118;48.570;7.916;2022-12-29T03:43:46;11.60;99.90
10155;DHT22;5118;48.570;7.916;2022-12-29T03:46:15;11.60;99.90
10155;DHT22;5118;48.570;7.916;2022-12-29T03:48:44;11.60;99.90
10155;DHT22;5118;48.570;7.916;2022-12-29T03:51:14;11.60;99.90
10155;DHT22;5118;48.570;7.916;2022-12-29T03:53:44;11.60;99.90
10155;DHT22;5118;48.570;7.916;2022-12-29T03:56:13;11.60;99.90
10155;DHT22;5118;48.570;7.916;2022-12-29T03:58:41;11.60;99.90
10155;DHT22;5118;48.570;7.916;2022-12-29T04:01:14;11.60;99.90
10155;DHT22;5118;48.570;7.916;2022-12-29T04:03:44;11.50;99.90
10155;DHT22;5118;48.570;7.916;2022-12-29T04:06:14;11.50;99.90
10155;DHT22;5118;48.570;7.916;2022-12-29T04:08:49;11.40;99.90
10155;DHT22;5118;48.570;7.916;2022-12-29T04:11:17;11.40;99.90
10155;DHT22;5118;48.570;7.916;2022-12-29T04:13:45;11.40;99.90
10155;DHT22;5118;48.570;7.916;2022-12-29T04:16:18;11.40;99.90
10155;DHT22;5118;48.570;7.916;2022-12-29T04:18:46;11.30;99.90
10155;DHT22;5118;48.570;7.916;2022-12-29T04:21:16;11.20;99.90
10155;DHT22;5118;48.570;7.916;2022-12-29T04:23:45;11.20;99.90
10155;DHT22;5118;48.570;7.916;2022-12-29T04:26:15;11.10;99.90
10155;DHT22;5118;48.570;7.916;2022-12-29T04:28:58;11.00;99.90
10155;DHT22;5118;48.570;7.916;2022-12-29T04:31:39;11.00;99.90
10155;DHT22;5118;48.570;7.916;2022-12-29T04:34:08;11.00;99.90
10155;DHT22;5118;48.570;7.916;2022-12-29T04:36:38;10.90;99.90
10155;DHT22;5118;48.570;7.916;2022-12-29T04:39:07;10.90;99.90
10155;DHT22;5118;48.570;7.916;2022-12-29T04:41:38;10.90;99.90
10155;DHT22;5118;48.570;7.916;2022-12-29T04:44:09;11.00;99.90
10155;DHT22;5118;48.570;7.916;2022-12-29T04:46:58;11.00;99.90
10155;DHT22;5118;48.570;7.916;2022-12-29T04:49:41;11.00;99.90
10155;DHT22;5118;48.570;7.916;2022-12-29T04:52:35;11.10;99.90
10155;DHT22;5118;48.570;7.916;2022-12-29T04:55:04;11.10;99.90
10155;DHT22;5118;48.570;7.916;2022-12-29T04:57:33;11.20;99.90
10155;DHT22;5118;48.570;7.916;2022-12-29T05:00:02;11.20;99.90
10155;DHT22;5118;48.570;7.916;2022-12-29T05:02:31;11.20;99.90
10155;DHT22;5118;48.570;7.916;2022-12-29T05:04:59;11.20;99.90
10155;DHT22;5118;48.570;7.916;2022-12-29T05:07:29;11.30;99.90
10155;DHT22;5118;48.570;7.916;2022-12-29T05:09:59;11.20;99.90
10155;DHT22;5118;48.570;7.916;2022-12-29T05:12:29;11.20;99.90
10155;DHT22;5118;48.570;7.916;2022-12-29T05:15:00;11.20;99.90
10155;DHT22;5118;48.570;7.916;2022-12-29T05:17:30;11.20;99.90
10155;DHT22;5118;48.570;7.916;2022-12-29T05:19:59;11.20;99.90
10155;DHT22;5118;48.570;7.916;2022-12-29T05:22:27;11.20;99.90
10155;DHT22;5118;48.570;7.916;2022-12-29T05:24:56;11.20;99.90
10155;DHT22;5118;48.570;7.916;2022-12-29T05:27:26;11.20;99.90
10155;DHT22;5118;48.570;7.916;2022-12-29T05:30:06;11.30;99.90
10155;DHT22;5118;48.570;7.916;2022-12-29T05:32:34;11.20;99.90
10155;DHT22;5118;48.570;7.916;2022-12-29T05:35:03;11.20;99.90
10155;DHT22;5118;48.570;7.916;2022-12-29T05:37:33;11.30;99.90
10155;DHT22;5118;48.570;7.916;2022-12-29T05:40:02;11.30;99.90
10155;DHT22;5118;48.570;7.916;2022-12-29T05:42:32;11.40;99.90
10155;DHT22;5118;48.570;7.916;2022-12-29T05:45:32;11.40;99.90
10155;DHT22;5118;48.570;7.916;2022-12-29T05:48:23;11.50;99.90
10155;DHT22;5118;48.570;7.916;2022-12-29T05:51:10;11.50;99.90
10155;DHT22;5118;48.570;7.916;2022-12-29T05:53:50;11.50;99.90
10155;DHT22;5118;48.570;7.916;2022-12-29T05:56:18;11.60;99.90
10155;DHT22;5118;48.570;7.916;2022-12-29T05:58:55;11.60;99.90
10155;DHT22;5118;48.570;7.916;2022-12-29T06:01:24;11.70;99.90
10155;DHT22;5118;48.570;7.916;2022-12-29T06:03:53;11.80;99.90
10155;DHT22;5118;48.570;7.916;2022-12-29T06:06:22;11.90;99.90
10155;DHT22;5118;48.570;7.916;2022-12-29T06:08:50;11.90;99.90
10155;DHT22;5118;48.570;7.916;2022-12-29T06:11:19;12.00;99.90
10155;DHT22;5118;48.570;7.916;2022-12-29T06:13:52;12.00;99.90
10155;DHT22;5118;48.570;7.916;2022-12-29T06:16:21;12.00;99.90
10155;DHT22;5118;48.570;7.916;2022-12-29T06:18:53;12.00;99.90
10155;DHT22;5118;48.570;7.916;2022-12-29T06:21:22;12.00;99.90
10155;DHT22;5118;48.570;7.916;2022-12-29T06:23:50;12.00;99.90
10155;DHT22;5118;48.570;7.916;2022-12-29T06:26:20;12.00;99.90
10155;DHT22;5118;48.570;7.916;2022-12-29T06:28:48;11.90;99.90
10155;DHT22;5118;48.570;7.916;2022-12-29T06:31:17;12.00;99.90
10155;DHT22;5118;48.570;7.916;2022-12-29T06:33:47;12.00;99.90
10155;DHT22;5118;48.570;7.916;2022-12-29T06:36:16;12.00;99.90
10155;DHT22;5118;48.570;7.916;2022-12-29T06:38:45;11.90;99.90
10155;DHT22;5118;48.570;7.916;2022-12-29T06:41:14;12.00;99.90
10155;DHT22;5118;48.570;7.916;2022-12-29T06:44:03;12.00;99.90
10155;DHT22;5118;48.570;7.916;2022-12-29T06:46:49;12.00;99.90
10155;DHT22;5118;48.570;7.916;2022-12-29T06:49:21;12.00;99.90
10155;DHT22;5118;48.570;7.916;2022-12-29T06:52:12;12.00;99.90
10155;DHT22;5118;48.570;7.916;2022-12-29T06:54:43;12.00;99.90
10155;DHT22;5118;48.570;7.916;2022-12-29T06:57:15;12.00;99.90
10155;DHT22;5118;48.570;7.916;2022-12-29T06:59:45;12.00;99.90
10155;DHT22;5118;48.570;7.916;2022-12-29T07:02:13;12.10;99.90
10155;DHT22;5118;48.570;7.916;2022-12-29T07:04:46;12.10;99.90
10155;DHT22;5118;48.570;7.916;2022-12-29T07:07:15;12.10;99.90
10155;DHT22;5118;48.570;7.916;2022-12-29T07:09:46;12.10;99.90
10155;DHT22;5118;48.570;7.916;2022-12-29T07:12:15;12.10;99.90
10155;DHT22;5118;48.570;7.916;2022-12-29T07:14:44;12.10;99.90
10155;DHT22;5118;48.570;7.916;2022-12-29T07:17:12;12.20;99.90
10155;DHT22;5118;48.570;7.916;2022-12-29T07:19:41;12.20;99.90
10155;DHT22;5118;48.570;7.916;2022-12-29T07:22:11;12.20;99.90
10155;DHT22;5118;48.570;7.916;2022-12-29T07:24:40;12.30;99.90
10155;DHT22;5118;48.570;7.916;2022-12-29T07:27:10;12.30;99.90
10155;DHT22;5118;48.570;7.916;2022-12-29T07:29:38;12.30;99.90
10155;DHT22;5118;48.570;7.916;2022-12-29T07:32:07;12.30;99.90
10155;DHT22;5118;48.570;7.916;2022-12-29T07:34:36;12.40;99.90
10155;DHT22;5118;48.570;7.916;2022-12-29T07:37:06;12.40;99.90
10155;DHT22;5118;48.570;7.916;2022-12-29T07:39:36;12.40;99.90
10155;DHT22;5118;48.570;7.916;2022-12-29T07:42:04;12.50;99.90
10155;DHT22;5118;48.570;7.916;2022-12-29T07:44:44;12.50;99.90
10155;DHT22;5118;48.570;7.916;2022-12-29T07:47:30;12.50;99.90
10155;DHT22;5118;48.570;7.916;2022-12-29T07:49:58;12.50;99.90
10155;DHT22;5118;48.570;7.916;2022-12-29T07:52:27;12.50;99.90
10155;DHT22;5118;48.570;7.916;2022-12-29T07:54:56;12.50;99.90
10155;DHT22;5118;48.570;7.916;2022-12-29T07:57:25;12.60;99.90
10155;DHT22;5118;48.570;7.916;2022-12-29T07:59:58;12.60;99.90
10155;DHT22;5118;48.570;7.916;2022-12-29T08:02:26;12.60;99.90
10155;DHT22;5118;48.570;7.916;2022-12-29T08:04:55;12.50;99.90
10155;DHT22;5118;48.570;7.916;2022-12-29T08:07:24;12.60;99.90
10155;DHT22;5118;48.570;7.916;2022-12-29T08:09:52;12.60;99.90
10155;DHT22;5118;48.570;7.916;2022-12-29T08:12:22;12.60;99.90
10155;DHT22;5118;48.570;7.916;2022-12-29T08:14:50;12.60;99.90
10155;DHT22;5118;48.570;7.916;2022-12-29T08:17:18;12.60;99.90
10155;DHT22;5118;48.570;7.916;2022-12-29T08:19:47;12.60;99.90
10155;DHT22;5118;48.570;7.916;2022-12-29T08:22:15;12.70;99.90
10155;DHT22;5118;48.570;7.916;2022-12-29T08:24:43;12.70;99.90
10155;DHT22;5118;48.570;7.916;2022-12-29T08:27:12;12.70;99.90
10155;DHT22;5118;48.570;7.916;2022-12-29T08:29:48;12.70;99.90
10155;DHT22;5118;48.570;7.916;2022-12-29T08:32:16;12.80;99.90
10155;DHT22;5118;48.570;7.916;2022-12-29T08:34:45;12.90;99.90
10155;DHT22;5118;48.570;7.916;2022-12-29T08:37:13;12.90;99.90
10155;DHT22;5118;48.570;7.916;2022-12-29T08:39:41;13.00;99.90
10155;DHT22;5118;48.570;7.916;2022-12-29T08:42:10;12.90;99.90
10155;DHT22;5118;48.570;7.916;2022-12-29T08:44:38;13.00;99.90
10155;DHT22;5118;48.570;7.916;2022-12-29T08:47:09;13.00;99.90
10155;DHT22;5118;48.570;7.916;2022-12-29T08:49:37;13.10;99.90
10155;DHT22;5118;48.570;7.916;2022-12-29T08:52:07;13.10;99.90
10155;DHT22;5118;48.570;7.916;2022-12-29T08:54:35;13.10;99.90
10155;DHT22;5118;48.570;7.916;2022-12-29T08:57:03;13.10;99.90
10155;DHT22;5118;48.570;7.916;2022-12-29T08:59:37;13.10;99.90
10155;DHT22;5118;48.570;7.916;2022-12-29T09:02:09;13.00;99.90
10155;DHT22;5118;48.570;7.916;2022-12-29T09:04:38;13.00;99.90
10155;DHT22;5118;48.570;7.916;2022-12-29T09:07:07;13.10;99.90
10155;DHT22;5118;48.570;7.916;2022-12-29T09:09:35;13.10;99.90
10155;DHT22;5118;48.570;7.916;2022-12-29T09:12:04;13.10;99.90
10155;DHT22;5118;48.570;7.916;2022-12-29T09:14:32;13.20;99.90
10155;DHT22;5118;48.570;7.916;2022-12-29T09:17:01;13.20;99.90
10155;DHT22;5118;48.570;7.916;2022-12-29T09:19:48;13.20;99.90
10155;DHT22;5118;48.570;7.916;2022-12-29T09:22:17;13.30;99.90
10155;DHT22;5118;48.570;7.916;2022-12-29T09:24:45;13.30;99.90
10155;DHT22;5118;48.570;7.916;2022-12-29T09:27:14;13.30;99.90
10155;DHT22;5118;48.570;7.916;2022-12-29T09:29:43;13.40;99.90
10155;DHT22;5118;48.570;7.916;2022-12-29T09:32:12;13.50;99.90
10155;DHT22;5118;48.570;7.916;2022-12-29T09:34:45;13.60;99.90
10155;DHT22;5118;48.570;7.916;2022-12-29T09:37:14;13.60;99.90
10155;DHT22;5118;48.570;7.916;2022-12-29T09:39:43;13.50;99.90
10155;DHT22;5118;48.570;7.916;2022-12-29T09:42:23;13.30;99.90
10155;DHT22;5118;48.570;7.916;2022-12-29T09:45:04;13.20;99.90
10155;DHT22;5118;48.570;7.916;2022-12-29T09:47:33;13.00;99.90
10155;DHT22;5118;48.570;7.916;2022-12-29T09:50:06;12.70;99.90
10155;DHT22;5118;48.570;7.916;2022-12-29T09:52:43;12.30;99.90
10155;DHT22;5118;48.570;7.916;2022-12-29T09:55:17;12.00;99.90
10155;DHT22;5118;48.570;7.916;2022-12-29T09:57:49;11.70;99.90
10155;DHT22;5118;48.570;7.916;2022-12-29T10:00:22;11.70;99.90
10155;DHT22;5118;48.570;7.916;2022-12-29T10:02:54;11.70;99.90
10155;DHT22;5118;48.570;7.916;2022-12-29T10:05:33;11.80;99.90
10155;DHT22;5118;48.570;7.916;2022-12-29T10:08:14;11.90;99.90
10155;DHT22;5118;48.570;7.916;2022-12-29T10:10:53;12.10;99.90
10155;DHT22;5118;48.570;7.916;2022-12-29T10:13:30;12.20;99.90
10155;DHT22;5118;48.570;7.916;2022-12-29T10:16:07;12.30;99.90
10155;DHT22;5118;48.570;7.916;2022-12-29T10:18:54;12.50;99.90
10155;DHT22;5118;48.570;7.916;2022-12-29T10:21:32;12.50;99.90
10155;DHT22;5118;48.570;7.916;2022-12-29T10:24:07;12.60;99.90
10155;DHT22;5118;48.570;7.916;2022-12-29T10:26:41;12.70;99.90
10155;DHT22;5118;48.570;7.916;2022-12-29T10:29:14;12.80;99.90
10155;DHT22;5118;48.570;7.916;2022-12-29T10:31:47;12.90;99.90
10155;DHT22;5118;48.570;7.916;2022-12-29T10:34:21;12.80;99.90
10155;DHT22;5118;48.570;7.916;2022-12-29T10:36:55;12.90;99.90
10155;DHT22;5118;48.570;7.916;2022-12-29T10:39:30;13.00;99.90
10155;DHT22;5118;48.570;7.916;2022-12-29T10:42:08;13.10;99.90
10155;DHT22;5118;48.570;7.916;2022-12-29T10:44:38;12.70;99.90
10155;DHT22;5118;48.570;7.916;2022-12-29T10:47:12;12.40;99.90
10155;DHT22;5118;48.570;7.916;2022-12-29T10:49:42;12.10;99.90
10155;DHT22;5118;48.570;7.916;2022-12-29T10:52:17;12.00;99.90
10155;DHT22;5118;48.570;7.916;2022-12-29T10:54:51;11.90;99.90
10155;DHT22;5118;48.570;7.916;2022-12-29T10:57:27;11.90;99.90
10155;DHT22;5118;48.570;7.916;2022-12-29T10:59:57;11.90;99.90
10155;DHT22;5118;48.570;7.916;2022-12-29T11:02:50;12.00;99.90
10155;DHT22;5118;48.570;7.916;2022-12-29T11:05:28;12.00;99.90
10155;DHT22;5118;48.570;7.916;2022-12-29T11:08:03;12.00;99.90
10155;DHT22;5118;48.570;7.916;2022-12-29T11:10:37;12.20;99.90
10155;DHT22;5118;48.570;7.916;2022-12-29T11:13:13;12.30;99.90
10155;DHT22;5118;48.570;7.916;2022-12-29T11:15:42;12.40;99.90
10155;DHT22;5118;48.570;7.916;2022-12-29T11:18:20;12.40;99.90
10155;DHT22;5118;48.570;7.916;2022-12-29T11:20:50;12.40;99.90
10155;DHT22;5118;48.570;7.916;2022-12-29T11:23:37;12.40;99.90
10155;DHT22;5118;48.570;7.916;2022-12-29T11:26:14;12.40;99.90
10155;DHT22;5118;48.570;7.916;2022-12-29T11:28:44;12.50;99.90
10155;DHT22;5118;48.570;7.916;2022-12-29T11:31:17;12.60;99.90
10155;DHT22;5118;48.570;7.916;2022-12-29T11:33:47;12.70;99.90
10155;DHT22;5118;48.570;7.916;2022-12-29T11:36:17;12.80;99.90
10155;DHT22;5118;48.570;7.916;2022-12-29T11:38:48;13.10;99.90
10155;DHT22;5118;48.570;7.916;2022-12-29T11:41:23;13.20;99.90
10155;DHT22;5118;48.570;7.916;2022-12-29T11:43:54;13.40;99.90
10155;DHT22;5118;48.570;7.916;2022-12-29T11:46:27;13.40;99.90
10155;DHT22;5118;48.570;7.916;2022-12-29T11:48:56;13.40;99.90
10155;DHT22;5118;48.570;7.916;2022-12-29T11:51:29;13.50;99.90
10155;DHT22;5118;48.570;7.916;2022-12-29T11:54:00;13.50;99.90
10155;DHT22;5118;48.570;7.916;2022-12-29T11:56:39;13.60;99.90
10155;DHT22;5118;48.570;7.916;2022-12-29T11:59:35;13.70;99.90
10155;DHT22;5118;48.570;7.916;2022-12-29T12:02:36;13.80;99.90
10155;DHT22;5118;48.570;7.916;2022-12-29T12:05:19;13.90;99.90
10155;DHT22;5118;48.570;7.916;2022-12-29T12:07:52;14.00;99.90
10155;DHT22;5118;48.570;7.916;2022-12-29T12:10:26;14.00;99.90
10155;DHT22;5118;48.570;7.916;2022-12-29T12:13:03;14.00;99.90
10155;DHT22;5118;48.570;7.916;2022-12-29T12:15:39;14.00;99.90
10155;DHT22;5118;48.570;7.916;2022-12-29T12:18:17;14.10;99.90
10155;DHT22;5118;48.570;7.916;2022-12-29T12:20:51;14.10;99.90
10155;DHT22;5118;48.570;7.916;2022-12-29T12:23:38;14.10;99.90
10155;DHT22;5118;48.570;7.916;2022-12-29T12:26:12;14.00;99.90
10155;DHT22;5118;48.570;7.916;2022-12-29T12:28:48;14.10;99.90
10155;DHT22;5118;48.570;7.916;2022-12-29T12:31:26;14.10;99.90
10155;DHT22;5118;48.570;7.916;2022-12-29T12:34:03;14.00;99.90
10155;DHT22;5118;48.570;7.916;2022-12-29T12:37:02;13.90;99.90
10155;DHT22;5118;48.570;7.916;2022-12-29T12:39:42;13.80;99.90
10155;DHT22;5118;48.570;7.916;2022-12-29T12:42:26;13.80;99.90
10155;DHT22;5118;48.570;7.916;2022-12-29T12:45:25;13.70;99.90
10155;DHT22;5118;48.570;7.916;2022-12-29T12:48:05;13.70;99.90
10155;DHT22;5118;48.570;7.916;2022-12-29T12:50:49;13.70;99.90
10155;DHT22;5118;48.570;7.916;2022-12-29T12:53:30;13.70;99.90
10155;DHT22;5118;48.570;7.916;2022-12-29T12:56:11;13.70;99.90
10155;DHT22;5118;48.570;7.916;2022-12-29T12:58:49;13.70;99.90
10155;DHT22;5118;48.570;7.916;2022-12-29T13:01:32;13.80;99.90
10155;DHT22;5118;48.570;7.916;2022-12-29T13:04:20;13.80;99.90
10155;DHT22;5118;48.570;7.916;2022-12-29T13:06:56;13.80;99.90
10155;DHT22;5118;48.570;7.916;2022-12-29T13:09:41;13.80;99.90
10155;DHT22;5118;48.570;7.916;2022-12-29T13:12:22;13.90;99.90
10155;DHT22;5118;48.570;7.916;2022-12-29T13:15:02;14.00;99.90
10155;DHT22;5118;48.570;7.916;2022-12-29T13:17:39;14.00;99.90
10155;DHT22;5118;48.570;7.916;2022-12-29T13:20:20;14.30;99.90
10155;DHT22;5118;48.570;7.916;2022-12-29T13:22:56;15.00;99.90
10155;DHT22;5118;48.570;7.916;2022-12-29T13:25:32;15.30;99.90
10155;DHT22;5118;48.570;7.916;2022-12-29T13:28:06;15.50;99.90
10155;DHT22;5118;48.570;7.916;2022-12-29T13:30:42;15.40;99.90
10155;DHT22;5118;48.570;7.916;2022-12-29T13:33:20;15.30;99.90
10155;DHT22;5118;48.570;7.916;2022-12-29T13:35:56;15.20;99.90
10155;DHT22;5118;48.570;7.916;2022-12-29T13:38:30;15.10;99.90
10155;DHT22;5118;48.570;7.916;2022-12-29T13:41:04;15.10;99.90
10155;DHT22;5118;48.570;7.916;2022-12-29T13:43:37;15.20;99.90
10155;DHT22;5118;48.570;7.916;2022-12-29T13:46:12;15.20;99.90
10155;DHT22;5118;48.570;7.916;2022-12-29T13:48:46;15.10;99.90
10155;DHT22;5118;48.570;7.916;2022-12-29T13:51:18;15.00;99.90
10155;DHT22;5118;48.570;7.916;2022-12-29T13:54:10;14.90;99.90
10155;DHT22;5118;48.570;7.916;2022-12-29T13:56:42;14.80;99.90
10155;DHT22;5118;48.570;7.916;2022-12-29T13:59:18;14.70;99.90
10155;DHT22;5118;48.570;7.916;2022-12-29T14:01:54;14.60;99.90
10155;DHT22;5118;48.570;7.916;2022-12-29T14:04:27;14.60;99.90
10155;DHT22;5118;48.570;7.916;2022-12-29T14:07:01;14.50;99.90
10155;DHT22;5118;48.570;7.916;2022-12-29T14:09:42;14.50;99.90
10155;DHT22;5118;48.570;7.916;2022-12-29T14:12:22;14.40;99.90
10155;DHT22;5118;48.570;7.916;2022-12-29T14:14:53;14.30;99.90
10155;DHT22;5118;48.570;7.916;2022-12-29T14:17:21;14.20;99.90
10155;DHT22;5118;48.570;7.916;2022-12-29T14:19:53;14.20;99.90
10155;DHT22;5118;48.570;7.916;2022-12-29T14:22:23;14.10;99.90
10155;DHT22;5118;48.570;7.916;2022-12-29T14:24:59;14.10;99.90
10155;DHT22;5118;48.570;7.916;2022-12-29T14:27:50;14.00;99.90
10155;DHT22;5118;48.570;7.916;2022-12-29T14:30:47;13.90;99.90
10155;DHT22;5118;48.570;7.916;2022-12-29T14:33:16;13.60;99.90
10155;DHT22;5118;48.570;7.916;2022-12-29T14:35:48;13.10;99.90
10155;DHT22;5118;48.570;7.916;2022-12-29T14:38:27;12.60;99.90
10155;DHT22;5118;48.570;7.916;2022-12-29T14:41:16;11.40;99.90
10155;DHT22;5118;48.570;7.916;2022-12-29T14:44:16;11.00;99.90
10155;DHT22;5118;48.570;7.916;2022-12-29T14:46:55;10.80;99.90
10155;DHT22;5118;48.570;7.916;2022-12-29T14:49:27;10.60;99.90
10155;DHT22;5118;48.570;7.916;2022-12-29T14:52:07;10.50;99.90
10155;DHT22;5118;48.570;7.916;2022-12-29T14:54:47;10.50;99.90
10155;DHT22;5118;48.570;7.916;2022-12-29T14:57:27;10.50;99.90
10155;DHT22;5118;48.570;7.916;2022-12-29T15:00:03;10.50;99.90
10155;DHT22;5118;48.570;7.916;2022-12-29T15:02:37;10.50;99.90
10155;DHT22;5118;48.570;7.916;2022-12-29T15:05:26;10.40;99.90
10155;DHT22;5118;48.570;7.916;2022-12-29T15:07:57;10.30;99.90
10155;DHT22;5118;48.570;7.916;2022-12-29T15:10:30;10.20;99.90
10155;DHT22;5118;48.570;7.916;2022-12-29T15:13:03;10.10;99.90
10155;DHT22;5118;48.570;7.916;2022-12-29T15:15:37;10.00;99.90
10155;DHT22;5118;48.570;7.916;2022-12-29T15:18:18;9.90;99.90
10155;DHT22;5118;48.570;7.916;2022-12-29T15:20:52;9.80;99.90
10155;DHT22;5118;48.570;7.916;2022-12-29T15:23:23;9.80;99.90
10155;DHT22;5118;48.570;7.916;2022-12-29T15:25:54;9.80;99.90
10155;DHT22;5118;48.570;7.916;2022-12-29T15:28:24;9.80;99.90
10155;DHT22;5118;48.570;7.916;2022-12-29T15:30:54;9.80;99.90
10155;DHT22;5118;48.570;7.916;2022-12-29T15:33:25;9.80;99.90
10155;DHT22;5118;48.570;7.916;2022-12-29T15:35:56;9.80;99.90
10155;DHT22;5118;48.570;7.916;2022-12-29T15:38:28;9.80;99.90
10155;DHT22;5118;48.570;7.916;2022-12-29T15:41:18;9.80;99.90
10155;DHT22;5118;48.570;7.916;2022-12-29T15:43:56;9.80;99.90
10155;DHT22;5118;48.570;7.916;2022-12-29T15:46:27;9.80;99.90
10155;DHT22;5118;48.570;7.916;2022-12-29T15:48:57;9.80;99.90
10155;DHT22;5118;48.570;7.916;2022-12-29T15:51:32;9.80;99.90
10155;DHT22;5118;48.570;7.916;2022-12-29T15:54:03;9.80;99.90
10155;DHT22;5118;48.570;7.916;2022-12-29T15:56:31;9.80;99.90
10155;DHT22;5118;48.570;7.916;2022-12-29T15:59:01;9.80;99.90
10155;DHT22;5118;48.570;7.916;2022-12-29T16:01:31;9.70;99.90
10155;DHT22;5118;48.570;7.916;2022-12-29T16:04:02;9.80;99.90
10155;DHT22;5118;48.570;7.916;2022-12-29T16:06:33;9.80;99.90
10155;DHT22;5118;48.570;7.916;2022-12-29T16:09:05;9.80;99.90
10155;DHT22;5118;48.570;7.916;2022-12-29T16:11:36;9.70;99.90
10155;DHT22;5118;48.570;7.916;2022-12-29T16:14:07;9.70;99.90
10155;DHT22;5118;48.570;7.916;2022-12-29T16:16:39;9.60;99.90
10155;DHT22;5118;48.570;7.916;2022-12-29T16:19:13;9.60;99.90
10155;DHT22;5118;48.570;7.916;2022-12-29T16:21:42;9.60;99.90
10155;DHT22;5118;48.570;7.916;2022-12-29T16:24:16;9.60;99.90
10155;DHT22;5118;48.570;7.916;2022-12-29T16:26:47;9.50;99.90
10155;DHT22;5118;48.570;7.916;2022-12-29T16:29:18;9.50;99.90
10155;DHT22;5118;48.570;7.916;2022-12-29T16:31:52;9.50;99.90
10155;DHT22;5118;48.570;7.916;2022-12-29T16:34:29;9.60;99.90